createdAt,value
2023-01-06T00:00:28.753Z,19.34
2023-01-06T00:01:28.710Z,19.32
2023-01-06T00:02:28.811Z,19.31
2023-01-06T00:03:28.726Z,19.31
2023-01-06T00:04:28.813Z,19.31
2023-01-06T00:05:28.785Z,19.30
2023-01-06T00:06:28.802Z,19.30
2023-01-06T00:07:28.838Z,19.31
2023-01-06T00:08:28.810Z,19.31
2023-01-06T00:09:28.940Z,19.31
2023-01-06T00:10:28.883Z,19.30
2023-01-06T00:11:28.881Z,19.31
2023-01-06T00:12:28.910Z,19.32
2023-01-06T00:13:28.913Z,19.31
2023-01-06T00:14:28.990Z,19.31
2023-01-06T00:15:28.994Z,19.34
2023-01-06T00:16:28.955Z,19.31
2023-01-06T00:17:29.006Z,19.32
2023-01-06T00:18:28.979Z,19.32
2023-01-06T00:19:28.992Z,19.34
2023-01-06T00:20:29.022Z,19.38
2023-01-06T00:21:29.037Z,19.34
2023-01-06T00:22:29.068Z,19.34
2023-01-06T00:23:29.042Z,19.34
2023-01-06T00:24:29.060Z,19.35
2023-01-06T00:25:29.219Z,19.35
2023-01-06T00:26:29.091Z,19.32
2023-01-06T00:27:29.115Z,19.32
2023-01-06T00:28:29.120Z,19.30
2023-01-06T00:29:29.148Z,19.31
2023-01-06T00:30:29.156Z,19.31
2023-01-06T00:31:29.203Z,19.34
2023-01-06T00:32:29.194Z,19.34
2023-01-06T00:33:29.207Z,19.38
2023-01-06T00:34:29.243Z,19.38
2023-01-06T00:35:29.264Z,19.35
2023-01-06T00:36:29.293Z,19.34
2023-01-06T00:37:29.326Z,19.34
2023-01-06T00:38:29.342Z,19.34
2023-01-06T00:39:29.373Z,19.35
2023-01-06T00:40:29.386Z,19.38
2023-01-06T00:41:29.523Z,19.38
2023-01-06T00:42:29.429Z,19.35
2023-01-06T00:43:29.407Z,19.34
2023-01-06T00:44:29.417Z,19.34
2023-01-06T00:45:29.489Z,19.30
2023-01-06T00:46:29.976Z,19.30
2023-01-06T00:47:29.463Z,19.32
2023-01-06T00:48:29.469Z,19.32
2023-01-06T00:49:29.499Z,19.31
2023-01-06T00:50:29.513Z,19.32
2023-01-06T00:51:29.525Z,19.32
2023-01-06T00:52:29.524Z,19.35
2023-01-06T00:53:29.581Z,19.35
2023-01-06T00:54:29.545Z,19.32
2023-01-06T00:55:29.573Z,19.34
2023-01-06T00:56:29.610Z,19.34
2023-01-06T00:57:29.710Z,19.32
2023-01-06T00:58:29.579Z,19.31
2023-01-06T00:59:29.642Z,19.32
2023-01-06T01:00:29.609Z,19.30
2023-01-06T01:01:29.783Z,19.30
2023-01-06T01:02:29.839Z,19.32
2023-01-06T01:03:29.620Z,19.32
2023-01-06T01:04:29.639Z,19.32
2023-01-06T01:05:29.664Z,19.34
2023-01-06T01:06:29.677Z,19.35
2023-01-06T01:07:29.689Z,19.35
2023-01-06T01:08:29.709Z,19.35
2023-01-06T01:09:29.717Z,19.35
2023-01-06T01:10:29.735Z,19.39
2023-01-06T01:11:29.765Z,19.39
2023-01-06T01:12:29.781Z,19.39
2023-01-06T01:13:29.905Z,19.38
2023-01-06T01:14:29.836Z,19.38
2023-01-06T01:15:29.897Z,19.39
2023-01-06T01:16:29.841Z,19.34
2023-01-06T01:17:29.849Z,19.38
2023-01-06T01:18:29.875Z,19.38
2023-01-06T01:19:29.887Z,19.34
2023-01-06T01:20:29.907Z,19.34
2023-01-06T01:21:29.949Z,19.32
2023-01-06T01:22:30.009Z,19.35
2023-01-06T01:23:29.983Z,19.35
2023-01-06T01:24:30.001Z,19.34
2023-01-06T01:25:30.005Z,19.31
2023-01-06T01:26:30.054Z,19.31
2023-01-06T01:27:30.017Z,19.32
2023-01-06T01:28:30.041Z,19.34
2023-01-06T01:29:30.181Z,19.35
2023-01-06T01:30:30.114Z,19.35
2023-01-06T01:31:30.230Z,19.38
2023-01-06T01:32:30.155Z,19.35
2023-01-06T01:33:30.176Z,19.38
2023-01-06T01:34:30.191Z,19.35
2023-01-06T01:35:30.204Z,19.38
2023-01-06T01:36:30.264Z,19.40
2023-01-06T01:37:30.217Z,19.39
2023-01-06T01:38:30.242Z,19.38
2023-01-06T01:39:30.255Z,19.38
2023-01-06T01:40:30.283Z,19.34
2023-01-06T01:41:30.315Z,19.34
2023-01-06T01:42:30.298Z,19.39
2023-01-06T01:43:30.311Z,19.35
2023-01-06T01:44:30.325Z,19.35
2023-01-06T01:45:30.464Z,19.38
2023-01-06T01:46:30.476Z,19.40
2023-01-06T01:47:30.429Z,19.40
2023-01-06T01:48:30.399Z,19.39
2023-01-06T01:49:30.405Z,19.39
2023-01-06T01:50:30.424Z,19.38
2023-01-06T01:51:30.450Z,19.39
2023-01-06T01:52:30.472Z,19.38
2023-01-06T01:53:30.473Z,19.34
2023-01-06T01:54:30.501Z,19.35
2023-01-06T01:55:30.477Z,19.35
2023-01-06T01:56:30.510Z,19.38
2023-01-06T01:57:30.505Z,19.38
2023-01-06T01:58:30.511Z,19.39
2023-01-06T01:59:30.529Z,19.39
2023-01-06T02:00:30.564Z,19.38
2023-01-06T02:01:30.810Z,19.38
2023-01-06T02:02:30.681Z,19.38
2023-01-06T02:03:30.580Z,19.38
2023-01-06T02:04:30.613Z,19.34
2023-01-06T02:05:30.619Z,19.35
2023-01-06T02:06:30.663Z,19.35
2023-01-06T02:07:30.681Z,19.34
2023-01-06T02:08:30.715Z,19.39
2023-01-06T02:09:30.732Z,19.39
2023-01-06T02:10:30.758Z,19.35
2023-01-06T02:11:30.771Z,19.38
2023-01-06T02:12:30.759Z,19.35
2023-01-06T02:13:30.767Z,19.35
2023-01-06T02:14:30.784Z,19.39
2023-01-06T02:15:30.803Z,19.42
2023-01-06T02:16:30.827Z,19.42
2023-01-06T02:17:30.971Z,19.42
2023-01-06T02:18:30.836Z,19.39
2023-01-06T02:19:30.860Z,19.38
2023-01-06T02:20:30.902Z,19.38
2023-01-06T02:21:30.922Z,19.39
2023-01-06T02:22:30.925Z,19.42
2023-01-06T02:23:30.940Z,19.43
2023-01-06T02:24:30.948Z,19.42
2023-01-06T02:25:30.951Z,19.40
2023-01-06T02:26:31.241Z,19.40
2023-01-06T02:27:30.993Z,19.42
2023-01-06T02:28:31.006Z,19.39
2023-01-06T02:29:31.035Z,19.40
2023-01-06T02:30:31.056Z,19.43
2023-01-06T02:31:31.142Z,19.38
2023-01-06T02:32:31.070Z,19.39
2023-01-06T02:33:31.212Z,19.40
2023-01-06T02:34:31.074Z,19.42
2023-01-06T02:35:31.097Z,19.40
2023-01-06T02:37:57.079Z,19.39
2023-01-06T02:38:57.037Z,19.40
2023-01-06T02:39:57.058Z,19.40
2023-01-06T02:40:57.087Z,19.38
2023-01-06T02:41:57.100Z,19.35
2023-01-06T02:42:57.111Z,19.38
2023-01-06T02:43:57.148Z,19.38
2023-01-06T02:44:57.155Z,19.35
2023-01-06T02:45:57.167Z,19.39
2023-01-06T02:46:57.195Z,19.39
2023-01-06T02:47:57.207Z,19.40
2023-01-06T02:48:57.311Z,19.39
2023-01-06T02:49:57.209Z,19.38
2023-01-06T02:50:57.221Z,19.40
2023-01-06T02:51:57.207Z,19.43
2023-01-06T02:52:57.242Z,19.40
2023-01-06T02:53:57.234Z,19.42
2023-01-06T02:54:57.247Z,19.42
2023-01-06T02:55:57.282Z,19.40
2023-01-06T02:56:57.340Z,19.39
2023-01-06T02:57:57.370Z,19.40
2023-01-06T02:58:57.347Z,19.40
2023-01-06T02:59:57.359Z,19.43
2023-01-06T03:00:57.446Z,19.42
2023-01-06T03:01:57.562Z,19.43
2023-01-06T03:02:57.421Z,19.42
2023-01-06T03:03:57.385Z,19.42
2023-01-06T03:04:57.616Z,19.42
2023-01-06T03:05:57.396Z,19.45
2023-01-06T03:06:57.438Z,19.42
2023-01-06T03:07:57.478Z,19.40
2023-01-06T03:08:57.505Z,19.40
2023-01-06T03:09:57.466Z,19.43
2023-01-06T03:10:57.507Z,19.42
2023-01-06T03:11:57.538Z,19.42
2023-01-06T03:12:57.565Z,19.42
2023-01-06T03:13:57.559Z,19.39
2023-01-06T03:14:57.570Z,19.39
2023-01-06T03:15:57.638Z,19.39
2023-01-06T03:16:57.642Z,19.39
2023-01-06T03:17:57.635Z,19.38
2023-01-06T03:18:57.657Z,19.40
2023-01-06T03:19:57.629Z,19.39
2023-01-06T03:20:57.768Z,19.39
2023-01-06T03:21:57.649Z,19.39
2023-01-06T03:22:57.676Z,19.40
2023-01-06T03:23:57.653Z,19.39
2023-01-06T03:24:57.708Z,19.38
2023-01-06T03:25:57.700Z,19.39
2023-01-06T03:26:57.719Z,19.38
2023-01-06T03:27:57.760Z,19.39
2023-01-06T03:28:57.740Z,19.38
2023-01-06T03:29:57.760Z,19.38
2023-01-06T03:30:57.898Z,19.40
2023-01-06T03:31:57.779Z,19.42
2023-01-06T03:32:57.851Z,19.43
2023-01-06T03:33:57.827Z,19.42
2023-01-06T03:34:57.811Z,19.42
2023-01-06T03:35:57.835Z,19.43
2023-01-06T03:36:58.008Z,19.42
2023-01-06T03:37:57.893Z,19.42
2023-01-06T03:38:57.888Z,19.40
2023-01-06T03:39:57.899Z,19.40
2023-01-06T03:40:57.866Z,19.39
2023-01-06T03:41:57.902Z,19.38
2023-01-06T03:42:57.894Z,19.39
2023-01-06T03:43:57.875Z,19.39
2023-01-06T03:44:57.892Z,19.38
2023-01-06T03:45:57.900Z,19.39
2023-01-06T03:46:57.902Z,19.35
2023-01-06T03:47:57.866Z,19.38
2023-01-06T03:48:57.870Z,19.38
2023-01-06T03:49:57.871Z,19.38
2023-01-06T03:50:57.847Z,19.39
2023-01-06T03:51:57.911Z,19.40
2023-01-06T03:52:58.017Z,19.39
2023-01-06T03:53:57.907Z,19.40
2023-01-06T03:54:57.932Z,19.43
2023-01-06T03:55:57.960Z,19.42
2023-01-06T03:56:57.939Z,19.40
2023-01-06T03:57:57.967Z,19.35
2023-01-06T03:58:58.033Z,19.35
2023-01-06T03:59:58.023Z,19.38
2023-01-06T04:00:58.066Z,19.38
2023-01-06T04:01:58.074Z,19.35
2023-01-06T04:02:58.112Z,19.38
2023-01-06T04:03:58.197Z,19.38
2023-01-06T04:04:58.097Z,19.39
2023-01-06T04:05:58.100Z,19.39
2023-01-06T04:06:58.081Z,19.39
2023-01-06T04:07:58.063Z,19.40
2023-01-06T04:08:58.170Z,19.40
2023-01-06T04:09:58.048Z,19.38
2023-01-06T04:10:58.071Z,19.39
2023-01-06T04:11:58.053Z,19.39
2023-01-06T04:12:58.103Z,19.42
2023-01-06T04:13:58.377Z,19.42
2023-01-06T04:14:58.139Z,19.43
2023-01-06T04:15:58.190Z,19.43
2023-01-06T04:16:58.179Z,19.42
2023-01-06T04:17:58.227Z,19.40
2023-01-06T04:18:58.240Z,19.42
2023-01-06T04:19:58.231Z,19.42
2023-01-06T04:20:58.243Z,19.40
2023-01-06T04:21:58.286Z,19.39
2023-01-06T04:22:58.333Z,19.42
2023-01-06T04:23:58.329Z,19.40
2023-01-06T04:24:58.451Z,19.40
2023-01-06T04:25:58.316Z,19.40
2023-01-06T04:26:58.363Z,19.42
2023-01-06T04:27:58.403Z,19.43
2023-01-06T04:28:58.380Z,19.40
2023-01-06T04:29:58.366Z,19.40
2023-01-06T04:30:58.403Z,19.43
2023-01-06T04:31:58.399Z,19.43
2023-01-06T04:32:58.431Z,19.43
2023-01-06T04:33:58.443Z,19.43
2023-01-06T04:34:58.415Z,19.42
2023-01-06T04:35:58.436Z,19.42
2023-01-06T04:36:58.463Z,19.43
2023-01-06T04:37:58.475Z,19.43
2023-01-06T04:38:58.531Z,19.43
2023-01-06T04:39:58.516Z,19.42
2023-01-06T04:40:58.678Z,19.43
2023-01-06T04:41:58.569Z,19.42
2023-01-06T04:42:58.586Z,19.43
2023-01-06T04:43:58.619Z,19.45
2023-01-06T04:44:58.599Z,19.43
2023-01-06T04:45:58.660Z,19.42
2023-01-06T04:46:58.621Z,19.45
2023-01-06T04:47:58.650Z,19.45
2023-01-06T04:48:58.684Z,19.43
2023-01-06T04:49:58.670Z,19.40
2023-01-06T04:50:58.642Z,19.40
2023-01-06T04:51:58.674Z,19.42
2023-01-06T04:52:58.709Z,19.43
2023-01-06T04:53:58.774Z,19.42
2023-01-06T04:54:58.729Z,19.40
2023-01-06T04:55:58.792Z,19.43
2023-01-06T04:56:58.901Z,19.42
2023-01-06T04:57:58.794Z,19.43
2023-01-06T04:58:58.780Z,19.39
2023-01-06T04:59:58.789Z,19.39
2023-01-06T05:00:58.879Z,19.42
2023-01-06T05:01:58.907Z,19.40
2023-01-06T05:02:58.840Z,19.39
2023-01-06T05:03:58.906Z,19.39
2023-01-06T05:04:58.863Z,19.40
2023-01-06T05:05:58.912Z,19.39
2023-01-06T05:06:58.954Z,19.39
2023-01-06T05:07:58.910Z,19.40
2023-01-06T05:08:58.891Z,19.42
2023-01-06T05:09:58.930Z,19.42
2023-01-06T05:10:58.967Z,19.42
2023-01-06T05:11:58.926Z,19.43
2023-01-06T05:12:59.076Z,19.45
2023-01-06T05:13:58.975Z,19.45
2023-01-06T05:14:58.983Z,19.43
2023-01-06T05:15:59.072Z,19.43
2023-01-06T05:16:59.031Z,19.42
2023-01-06T05:17:58.998Z,19.42
2023-01-06T05:18:59.046Z,19.39
2023-01-06T05:19:59.071Z,19.43
2023-01-06T05:20:59.038Z,19.40
2023-01-06T05:21:59.096Z,19.42
2023-01-06T05:22:59.078Z,19.43
2023-01-06T05:23:59.077Z,19.43
2023-01-06T05:24:59.091Z,19.43
2023-01-06T05:25:59.143Z,19.42
2023-01-06T05:26:59.116Z,19.42
2023-01-06T05:27:59.142Z,19.40
2023-01-06T05:28:59.325Z,19.42
2023-01-06T05:29:59.206Z,19.40
2023-01-06T05:30:59.195Z,19.42
2023-01-06T05:31:59.288Z,19.42
2023-01-06T05:32:59.256Z,19.42
2023-01-06T05:33:59.244Z,19.43
2023-01-06T05:34:59.263Z,19.43
2023-01-06T05:35:59.264Z,19.40
2023-01-06T05:36:59.252Z,19.39
2023-01-06T05:37:59.239Z,19.40
2023-01-06T05:38:59.286Z,19.40
2023-01-06T05:39:59.267Z,19.40
2023-01-06T05:40:59.245Z,19.40
2023-01-06T05:41:59.291Z,19.39
2023-01-06T05:42:59.271Z,19.38
2023-01-06T05:43:59.339Z,19.39
2023-01-06T05:44:59.449Z,19.38
2023-01-06T05:45:59.409Z,19.40
2023-01-06T05:46:59.343Z,19.42
2023-01-06T05:47:59.406Z,19.42
2023-01-06T05:48:59.393Z,19.39
2023-01-06T05:49:59.394Z,19.42
2023-01-06T05:50:59.426Z,19.39
2023-01-06T05:51:59.451Z,19.38
2023-01-06T05:53:00.053Z,19.38
2023-01-06T05:53:59.442Z,19.39
2023-01-06T05:54:59.454Z,19.42
2023-01-06T05:55:59.484Z,19.43
2023-01-06T05:56:59.493Z,19.43
2023-01-06T05:57:59.484Z,19.42
2023-01-06T05:58:59.454Z,19.39
2023-01-06T05:59:59.473Z,19.39
2023-01-06T06:02:25.627Z,19.39
2023-01-06T06:03:25.499Z,19.35
2023-01-06T06:04:25.461Z,19.38
2023-01-06T06:05:25.459Z,19.38
2023-01-06T06:06:25.464Z,19.38
2023-01-06T06:07:25.478Z,19.42
2023-01-06T06:08:25.489Z,19.39
2023-01-06T06:09:25.498Z,19.35
2023-01-06T06:10:25.522Z,19.35
2023-01-06T06:11:25.574Z,19.35
2023-01-06T06:12:25.582Z,19.34
2023-01-06T06:13:25.540Z,19.35
2023-01-06T06:14:25.565Z,19.38
2023-01-06T06:15:25.608Z,19.43
2023-01-06T06:16:25.615Z,19.42
2023-01-06T06:17:25.848Z,19.39
2023-01-06T06:18:25.722Z,19.35
2023-01-06T06:19:25.812Z,19.38
2023-01-06T06:20:25.804Z,19.38
2023-01-06T06:21:25.604Z,19.39
2023-01-06T06:22:25.651Z,19.38
2023-01-06T06:23:25.617Z,19.38
2023-01-06T06:24:25.636Z,19.35
2023-01-06T06:25:25.682Z,19.34
2023-01-06T06:26:25.688Z,19.34
2023-01-06T06:27:25.730Z,19.35
2023-01-06T06:28:25.698Z,19.35
2023-01-06T06:29:25.714Z,19.34
2023-01-06T06:30:25.726Z,19.34
2023-01-06T06:31:25.885Z,19.31
2023-01-06T06:32:25.749Z,19.32
2023-01-06T06:33:25.731Z,19.34
2023-01-06T06:34:25.856Z,19.35
2023-01-06T06:35:25.733Z,19.38
2023-01-06T06:36:25.789Z,19.39
2023-01-06T06:37:25.765Z,19.32
2023-01-06T06:38:25.833Z,19.34
2023-01-06T06:39:25.797Z,19.32
2023-01-06T06:40:25.815Z,19.34
2023-01-06T06:41:25.841Z,19.34
2023-01-06T06:42:25.846Z,19.34
2023-01-06T06:43:25.875Z,19.32
2023-01-06T06:44:25.909Z,19.34
2023-01-06T06:45:25.926Z,19.34
2023-01-06T06:46:25.936Z,19.35
2023-01-06T06:47:25.989Z,19.34
2023-01-06T06:48:25.994Z,19.34
2023-01-06T06:49:26.022Z,19.34
2023-01-06T06:50:26.124Z,19.34
2023-01-06T06:51:26.029Z,19.35
2023-01-06T06:52:26.007Z,19.35
2023-01-06T06:53:26.008Z,19.31
2023-01-06T06:54:26.047Z,19.31
2023-01-06T06:55:26.087Z,19.32
2023-01-06T06:56:26.047Z,19.32
2023-01-06T06:57:26.066Z,19.32
2023-01-06T06:58:26.090Z,19.34
2023-01-06T06:59:26.095Z,19.34
2023-01-06T07:00:26.154Z,19.32
2023-01-06T07:01:26.212Z,19.31
2023-01-06T07:02:26.162Z,19.31
2023-01-06T07:03:26.199Z,19.32
2023-01-06T07:04:26.229Z,19.32
2023-01-06T07:05:26.183Z,19.34
2023-01-06T07:06:28.055Z,19.32
2023-01-06T07:07:26.251Z,19.32
2023-01-06T07:08:26.226Z,19.34
2023-01-06T07:09:26.227Z,19.34
2023-01-06T07:10:26.239Z,19.34
2023-01-06T07:11:26.259Z,19.32
2023-01-06T07:12:26.231Z,19.32
2023-01-06T07:13:26.264Z,19.31
2023-01-06T07:14:26.284Z,19.32
2023-01-06T07:15:26.339Z,19.35
2023-01-06T07:16:26.314Z,19.34
2023-01-06T07:17:26.325Z,19.32
2023-01-06T07:18:26.351Z,19.34
2023-01-06T07:19:26.381Z,19.32
2023-01-06T07:20:26.422Z,19.32
2023-01-06T07:21:26.387Z,19.31
2023-01-06T07:22:26.534Z,19.34
2023-01-06T07:23:26.453Z,19.34
2023-01-06T07:24:26.488Z,19.34
2023-01-06T07:25:26.458Z,19.35
2023-01-06T07:26:26.476Z,19.35
2023-01-06T07:27:26.492Z,19.34
2023-01-06T07:28:26.513Z,19.30
2023-01-06T07:29:26.527Z,19.30
2023-01-06T07:30:26.554Z,19.31
2023-01-06T07:31:26.637Z,19.30
2023-01-06T07:32:26.556Z,19.30
2023-01-06T07:33:26.586Z,19.31
2023-01-06T07:34:26.589Z,19.32
2023-01-06T07:35:26.640Z,19.31
2023-01-06T07:36:26.589Z,19.34
2023-01-06T07:37:26.617Z,19.31
2023-01-06T07:38:26.787Z,19.32
2023-01-06T07:39:26.662Z,19.31
2023-01-06T07:40:26.682Z,19.30
2023-01-06T07:41:26.709Z,19.32
2023-01-06T07:42:26.735Z,19.35
2023-01-06T07:43:26.750Z,19.38
2023-01-06T07:44:26.769Z,19.35
2023-01-06T07:45:26.795Z,19.35
2023-01-06T07:46:26.861Z,19.32
2023-01-06T07:47:26.832Z,19.31
2023-01-06T07:48:26.852Z,19.32
2023-01-06T07:49:26.892Z,19.34
2023-01-06T07:50:26.902Z,19.31
2023-01-06T07:51:26.912Z,19.31
2023-01-06T07:52:26.898Z,19.34
2023-01-06T07:53:26.928Z,19.35
2023-01-06T07:54:27.056Z,19.32
2023-01-06T07:55:26.925Z,19.32
2023-01-06T07:56:26.957Z,19.32
2023-01-06T07:57:26.999Z,19.32
2023-01-06T07:58:27.011Z,19.34
2023-01-06T07:59:27.052Z,19.34
2023-01-06T08:00:27.029Z,19.35
2023-01-06T08:01:27.243Z,19.32
2023-01-06T08:02:27.387Z,19.31
2023-01-06T08:03:27.145Z,19.28
2023-01-06T08:04:27.096Z,19.28
2023-01-06T08:05:27.060Z,19.27
2023-01-06T08:07:53.038Z,19.34
2023-01-06T08:08:53.045Z,19.34
2023-01-06T08:09:53.222Z,19.32
2023-01-06T08:10:53.040Z,19.31
2023-01-06T08:11:53.036Z,19.31
2023-01-06T08:12:53.068Z,19.30
2023-01-06T08:13:53.087Z,19.32
2023-01-06T08:14:53.107Z,19.30
2023-01-06T08:15:53.135Z,19.30
2023-01-06T08:16:53.153Z,19.32
2023-01-06T08:17:53.193Z,19.32
2023-01-06T08:18:53.193Z,19.32
2023-01-06T08:19:53.181Z,19.34
2023-01-06T08:20:53.210Z,19.35
2023-01-06T08:21:53.224Z,19.38
2023-01-06T08:22:53.249Z,19.40
2023-01-06T08:23:53.271Z,19.40
2023-01-06T08:24:53.294Z,19.40
2023-01-06T08:25:53.453Z,19.40
2023-01-06T08:26:53.325Z,19.40
2023-01-06T08:27:53.359Z,19.40
2023-01-06T08:28:53.335Z,19.40
2023-01-06T08:29:53.388Z,19.43
2023-01-06T08:30:55.191Z,19.43
2023-01-06T08:32:02.175Z,19.42
2023-01-06T08:32:53.454Z,19.45
2023-01-06T08:33:53.484Z,19.45
2023-01-06T08:34:53.435Z,19.47
2023-01-06T08:35:53.402Z,19.47
2023-01-06T08:36:53.424Z,19.47
2023-01-06T08:37:53.443Z,19.47
2023-01-06T08:38:53.450Z,19.47
2023-01-06T08:39:53.475Z,19.49
2023-01-06T08:40:53.497Z,19.49
2023-01-06T08:41:53.650Z,19.50
2023-01-06T08:42:53.555Z,19.53
2023-01-06T08:43:53.547Z,19.57
2023-01-06T08:44:53.560Z,19.61
2023-01-06T08:45:53.598Z,19.64
2023-01-06T08:46:53.635Z,19.62
2023-01-06T08:47:53.616Z,19.61
2023-01-06T08:48:53.634Z,19.64
2023-01-06T08:49:53.640Z,19.67
2023-01-06T08:50:53.661Z,19.67
2023-01-06T08:51:53.691Z,19.65
2023-01-06T08:52:53.728Z,19.65
2023-01-06T08:53:53.716Z,19.65
2023-01-06T08:54:53.739Z,19.62
2023-01-06T08:55:53.734Z,19.61
2023-01-06T08:56:53.772Z,19.60
2023-01-06T08:57:55.173Z,19.60
2023-01-06T08:58:53.799Z,19.58
2023-01-06T08:59:53.827Z,19.60
2023-01-06T09:00:53.837Z,19.58
2023-01-06T09:01:53.954Z,19.58
2023-01-06T09:02:53.850Z,19.60
2023-01-06T09:03:53.805Z,19.60
2023-01-06T09:04:53.860Z,19.58
2023-01-06T09:05:53.810Z,19.62
2023-01-06T09:06:54.175Z,19.64
2023-01-06T09:07:53.851Z,19.65
2023-01-06T09:08:53.871Z,19.65
2023-01-06T09:09:53.847Z,19.64
2023-01-06T09:10:53.854Z,19.64
2023-01-06T09:11:53.885Z,19.65
2023-01-06T09:12:53.902Z,19.65
2023-01-06T09:13:54.082Z,19.67
2023-01-06T09:14:53.969Z,19.68
2023-01-06T09:15:53.996Z,19.70
2023-01-06T09:16:53.960Z,19.65
2023-01-06T09:17:53.995Z,19.65
2023-01-06T09:18:54.076Z,19.64
2023-01-06T09:19:53.993Z,19.62
2023-01-06T09:20:54.011Z,19.62
2023-01-06T09:21:54.034Z,19.61
2023-01-06T09:22:54.098Z,19.61
2023-01-06T09:23:54.082Z,19.60
2023-01-06T09:24:54.111Z,19.60
2023-01-06T09:25:54.122Z,19.57
2023-01-06T09:26:54.119Z,19.58
2023-01-06T09:27:54.149Z,19.60
2023-01-06T09:28:54.166Z,19.55
2023-01-06T09:29:54.334Z,19.57
2023-01-06T09:30:54.208Z,19.55
2023-01-06T09:31:54.231Z,19.55
2023-01-06T09:32:54.218Z,19.53
2023-01-06T09:33:54.298Z,19.53
2023-01-06T09:34:54.235Z,19.50
2023-01-06T09:35:54.267Z,19.47
2023-01-06T09:36:54.243Z,19.47
2023-01-06T09:37:54.315Z,19.49
2023-01-06T09:38:54.283Z,19.52
2023-01-06T09:39:54.316Z,19.52
2023-01-06T09:40:54.343Z,19.52
2023-01-06T09:41:54.497Z,19.50
2023-01-06T09:42:54.466Z,19.49
2023-01-06T09:43:54.405Z,19.47
2023-01-06T09:44:54.380Z,19.49
2023-01-06T09:45:54.513Z,19.50
2023-01-06T09:46:54.468Z,19.49
2023-01-06T09:47:54.444Z,19.50
2023-01-06T09:48:54.442Z,19.49
2023-01-06T09:49:54.432Z,19.47
2023-01-06T09:50:54.401Z,19.49
2023-01-06T09:51:54.458Z,19.50
2023-01-06T09:52:54.449Z,19.52
2023-01-06T09:53:54.415Z,19.52
2023-01-06T09:54:54.415Z,19.52
2023-01-06T09:55:54.447Z,19.52
2023-01-06T09:56:54.451Z,19.52
2023-01-06T09:57:54.482Z,19.52
2023-01-06T09:58:54.518Z,19.49
2023-01-06T09:59:54.483Z,19.50
2023-01-06T10:00:54.516Z,19.52
2023-01-06T10:01:54.792Z,19.53
2023-01-06T10:02:54.591Z,19.50
2023-01-06T10:03:54.658Z,19.52
2023-01-06T10:04:54.625Z,19.53
2023-01-06T10:05:54.639Z,19.55
2023-01-06T10:06:54.588Z,19.61
2023-01-06T10:07:54.865Z,19.64
2023-01-06T10:08:54.629Z,19.67
2023-01-06T10:09:54.649Z,19.65
2023-01-06T10:10:54.674Z,19.68
2023-01-06T10:11:54.711Z,19.71
2023-01-06T10:12:54.739Z,19.70
2023-01-06T10:13:54.773Z,19.72
2023-01-06T10:14:54.746Z,19.80
2023-01-06T10:15:54.748Z,19.82
2023-01-06T10:16:54.774Z,19.80
2023-01-06T10:17:54.937Z,19.79
2023-01-06T10:18:54.836Z,19.76
2023-01-06T10:19:54.832Z,19.78
2023-01-06T10:20:54.831Z,19.76
2023-01-06T10:21:54.823Z,19.75
2023-01-06T10:22:54.809Z,19.72
2023-01-06T10:23:54.850Z,19.71
2023-01-06T10:24:54.817Z,19.70
2023-01-06T10:25:54.855Z,19.70
2023-01-06T10:26:54.887Z,19.71
2023-01-06T10:27:54.868Z,19.71
2023-01-06T10:28:54.870Z,19.70
2023-01-06T10:29:54.906Z,19.72
2023-01-06T10:30:54.869Z,19.71
2023-01-06T10:31:54.888Z,19.75
2023-01-06T10:32:54.870Z,19.75
2023-01-06T10:33:54.957Z,19.75
2023-01-06T10:34:54.930Z,19.72
2023-01-06T10:35:54.969Z,19.76
2023-01-06T10:36:55.016Z,19.72
2023-01-06T10:37:54.984Z,19.76
2023-01-06T10:38:55.032Z,19.78
2023-01-06T10:39:55.004Z,19.75
2023-01-06T10:40:55.052Z,19.75
2023-01-06T10:41:55.080Z,19.71
2023-01-06T10:42:55.073Z,19.70
2023-01-06T10:43:55.095Z,19.71
2023-01-06T10:44:55.160Z,19.71
2023-01-06T10:45:55.121Z,19.70
2023-01-06T10:46:55.270Z,19.70
2023-01-06T10:47:55.163Z,19.68
2023-01-06T10:48:55.228Z,19.68
2023-01-06T10:49:55.304Z,19.67
2023-01-06T10:50:57.091Z,19.67
2023-01-06T10:51:55.263Z,19.67
2023-01-06T10:52:55.268Z,19.67
2023-01-06T10:53:55.327Z,19.67
2023-01-06T10:54:55.283Z,19.68
2023-01-06T10:55:55.340Z,19.70
2023-01-06T10:56:55.317Z,19.70
2023-01-06T10:57:55.347Z,19.72
2023-01-06T10:58:55.384Z,19.78
2023-01-06T10:59:55.354Z,19.78
2023-01-06T11:00:55.444Z,19.80
2023-01-06T11:01:55.514Z,19.83
2023-01-06T11:02:57.797Z,19.83
2023-01-06T11:03:55.431Z,19.82
2023-01-06T11:04:55.455Z,19.80
2023-01-06T11:05:55.631Z,19.80
2023-01-06T11:06:55.564Z,19.79
2023-01-06T11:07:55.566Z,19.78
2023-01-06T11:08:55.490Z,19.79
2023-01-06T11:09:55.551Z,19.76
2023-01-06T11:10:55.518Z,19.76
2023-01-06T11:11:55.547Z,19.78
2023-01-06T11:12:55.596Z,19.78
2023-01-06T11:13:55.558Z,19.79
2023-01-06T11:14:55.601Z,19.78
2023-01-06T11:15:55.608Z,19.79
2023-01-06T11:16:55.616Z,19.76
2023-01-06T11:17:55.634Z,19.75
2023-01-06T11:18:55.600Z,19.75
2023-01-06T11:19:55.584Z,19.72
2023-01-06T11:20:55.596Z,19.72
2023-01-06T11:21:55.772Z,19.71
2023-01-06T11:24:21.562Z,19.70
2023-01-06T11:25:21.526Z,19.70
2023-01-06T11:26:21.533Z,19.70
2023-01-06T11:27:21.559Z,19.68
2023-01-06T11:28:21.547Z,19.68
2023-01-06T11:29:21.590Z,19.68
2023-01-06T11:30:21.604Z,19.68
2023-01-06T11:31:21.804Z,19.64
2023-01-06T11:32:21.652Z,19.64
2023-01-06T11:33:21.660Z,19.65
2023-01-06T11:34:21.665Z,19.65
2023-01-06T11:35:21.694Z,19.62
2023-01-06T11:36:21.774Z,19.62
2023-01-06T11:37:22.132Z,19.62
2023-01-06T11:38:21.758Z,19.61
2023-01-06T11:39:21.730Z,19.62
2023-01-06T11:40:21.794Z,19.61
2023-01-06T11:41:21.782Z,19.61
2023-01-06T11:42:21.818Z,19.60
2023-01-06T11:43:21.799Z,19.58
2023-01-06T11:44:21.811Z,19.61
2023-01-06T11:45:21.829Z,19.62
2023-01-06T11:46:21.862Z,19.62
2023-01-06T11:47:21.892Z,19.61
2023-01-06T11:48:22.000Z,19.60
2023-01-06T11:49:21.948Z,19.62
2023-01-06T11:50:22.145Z,19.62
2023-01-06T11:51:21.949Z,19.62
2023-01-06T11:52:21.999Z,19.61
2023-01-06T11:53:22.086Z,19.61
2023-01-06T11:54:22.008Z,19.60
2023-01-06T11:55:22.070Z,19.62
2023-01-06T11:56:22.047Z,19.62
2023-01-06T11:57:22.064Z,19.62
2023-01-06T11:58:22.115Z,19.65
2023-01-06T11:59:22.088Z,19.62
2023-01-06T12:00:22.104Z,19.65
2023-01-06T12:01:22.352Z,19.67
2023-01-06T12:02:22.212Z,19.68
2023-01-06T12:03:22.195Z,19.65
2023-01-06T12:04:22.139Z,19.67
2023-01-06T12:05:22.173Z,19.65
2023-01-06T12:06:22.159Z,19.64
2023-01-06T12:07:22.186Z,19.64
2023-01-06T12:08:22.204Z,19.64
2023-01-06T12:09:22.362Z,19.62
2023-01-06T12:10:22.244Z,19.62
2023-01-06T12:11:22.293Z,19.65
2023-01-06T12:12:22.271Z,19.62
2023-01-06T12:13:22.294Z,19.62
2023-01-06T12:14:28.919Z,19.62
2023-01-06T12:15:22.343Z,19.65
2023-01-06T12:16:22.481Z,19.71
2023-01-06T12:17:22.608Z,19.76
2023-01-06T12:18:22.381Z,19.78
2023-01-06T12:19:22.407Z,19.75
2023-01-06T12:20:22.458Z,19.78
2023-01-06T12:21:22.509Z,19.76
2023-01-06T12:22:22.476Z,19.75
2023-01-06T12:23:22.500Z,19.71
2023-01-06T12:24:22.526Z,19.71
2023-01-06T12:25:22.656Z,19.70
2023-01-06T12:26:23.932Z,19.68
2023-01-06T12:27:22.580Z,19.67
2023-01-06T12:28:22.603Z,19.68
2023-01-06T12:29:22.636Z,19.70
2023-01-06T12:30:22.633Z,19.68
2023-01-06T12:31:22.619Z,19.70
2023-01-06T12:32:22.662Z,19.70
2023-01-06T12:33:22.637Z,19.68
2023-01-06T12:34:22.649Z,19.68
2023-01-06T12:35:22.676Z,19.67
2023-01-06T12:36:22.733Z,19.65
2023-01-06T12:37:22.721Z,19.65
2023-01-06T12:38:22.704Z,19.62
2023-01-06T12:39:22.734Z,19.64
2023-01-06T12:40:22.753Z,19.62
2023-01-06T12:41:22.914Z,19.61
2023-01-06T12:42:22.797Z,19.64
2023-01-06T12:43:22.864Z,19.62
2023-01-06T12:44:22.836Z,19.61
2023-01-06T12:45:22.884Z,19.58
2023-01-06T12:46:22.899Z,19.60
2023-01-06T12:47:22.853Z,19.60
2023-01-06T12:48:22.873Z,19.58
2023-01-06T12:49:22.905Z,19.58
2023-01-06T12:50:22.897Z,19.60
2023-01-06T12:51:22.908Z,19.58
2023-01-06T12:52:22.944Z,19.60
2023-01-06T12:53:23.067Z,19.60
2023-01-06T12:54:22.997Z,19.58
2023-01-06T12:55:23.006Z,19.58
2023-01-06T12:56:23.030Z,19.58
2023-01-06T12:57:23.186Z,19.60
2023-01-06T12:58:23.120Z,19.57